sensor_id;sensor_type;location;lat;lon;timestamp;P1;durP1;ratioP1;P2;durP2;ratioP2
12474;SDS011;6302;42.624;23.334;2023-02-18T00:02:16;11.57;;;7.93;;
12474;SDS011;6302;42.624;23.334;2023-02-18T00:04:42;11.47;;;8.27;;
12474;SDS011;6302;42.624;23.334;2023-02-18T00:07:09;11.77;;;8.87;;
12474;SDS011;6302;42.624;23.334;2023-02-18T00:09:37;14.20;;;9.57;;
12474;SDS011;6302;42.624;23.334;2023-02-18T00:12:03;15.17;;;11.00;;
12474;SDS011;6302;42.624;23.334;2023-02-18T00:14:30;16.87;;;10.37;;
12474;SDS011;6302;42.624;23.334;2023-02-18T00:16:59;18.33;;;11.17;;
12474;SDS011;6302;42.624;23.334;2023-02-18T00:19:25;14.67;;;10.67;;
12474;SDS011;6302;42.624;23.334;2023-02-18T00:21:52;18.17;;;12.20;;
12474;SDS011;6302;42.624;23.334;2023-02-18T00:24:19;15.40;;;10.47;;
12474;SDS011;6302;42.624;23.334;2023-02-18T00:26:48;16.00;;;11.10;;
12474;SDS011;6302;42.624;23.334;2023-02-18T00:29:16;29.73;;;17.67;;
12474;SDS011;6302;42.624;23.334;2023-02-18T00:31:42;18.03;;;10.50;;
12474;SDS011;6302;42.624;23.334;2023-02-18T00:34:11;16.77;;;10.67;;
12474;SDS011;6302;42.624;23.334;2023-02-18T00:36:39;16.23;;;11.30;;
12474;SDS011;6302;42.624;23.334;2023-02-18T00:39:06;17.33;;;10.63;;
12474;SDS011;6302;42.624;23.334;2023-02-18T00:41:34;16.27;;;10.43;;
12474;SDS011;6302;42.624;23.334;2023-02-18T00:44:01;20.50;;;11.80;;
12474;SDS011;6302;42.624;23.334;2023-02-18T00:46:28;24.77;;;13.93;;
12474;SDS011;6302;42.624;23.334;2023-02-18T00:48:55;22.10;;;13.13;;
12474;SDS011;6302;42.624;23.334;2023-02-18T00:51:23;18.07;;;11.87;;
12474;SDS011;6302;42.624;23.334;2023-02-18T00:53:50;20.50;;;11.23;;
12474;SDS011;6302;42.624;23.334;2023-02-18T00:56:17;20.07;;;12.03;;
12474;SDS011;6302;42.624;23.334;2023-02-18T00:58:44;17.67;;;11.07;;
12474;SDS011;6302;42.624;23.334;2023-02-18T01:01:11;16.57;;;10.87;;
12474;SDS011;6302;42.624;23.334;2023-02-18T01:03:39;15.43;;;10.40;;
12474;SDS011;6302;42.624;23.334;2023-02-18T01:06:08;15.40;;;10.20;;
12474;SDS011;6302;42.624;23.334;2023-02-18T01:08:38;16.03;;;10.53;;
12474;SDS011;6302;42.624;23.334;2023-02-18T01:11:06;15.10;;;9.80;;
12474;SDS011;6302;42.624;23.334;2023-02-18T01:13:34;14.50;;;8.90;;
12474;SDS011;6302;42.624;23.334;2023-02-18T01:16:01;10.83;;;8.37;;
12474;SDS011;6302;42.624;23.334;2023-02-18T01:18:28;12.63;;;9.17;;
12474;SDS011;6302;42.624;23.334;2023-02-18T01:20:56;13.40;;;8.63;;
12474;SDS011;6302;42.624;23.334;2023-02-18T01:23:23;13.10;;;9.63;;
12474;SDS011;6302;42.624;23.334;2023-02-18T01:25:51;16.67;;;9.73;;
12474;SDS011;6302;42.624;23.334;2023-02-18T01:28:18;13.90;;;9.33;;
12474;SDS011;6302;42.624;23.334;2023-02-18T01:30:49;12.30;;;8.00;;
12474;SDS011;6302;42.624;23.334;2023-02-18T01:33:16;12.07;;;8.27;;
12474;SDS011;6302;42.624;23.334;2023-02-18T01:35:43;11.83;;;8.47;;
12474;SDS011;6302;42.624;23.334;2023-02-18T01:38:09;12.53;;;8.00;;
12474;SDS011;6302;42.624;23.334;2023-02-18T01:40:43;15.37;;;8.47;;
12474;SDS011;6302;42.624;23.334;2023-02-18T01:43:13;12.27;;;8.40;;
12474;SDS011;6302;42.624;23.334;2023-02-18T01:48:31;11.33;;;8.77;;
12474;SDS011;6302;42.624;23.334;2023-02-18T01:51:03;14.27;;;8.03;;
12474;SDS011;6302;42.624;23.334;2023-02-18T01:53:35;13.17;;;8.83;;
12474;SDS011;6302;42.624;23.334;2023-02-18T01:56:07;12.63;;;7.93;;
12474;SDS011;6302;42.624;23.334;2023-02-18T01:58:37;20.37;;;11.70;;
12474;SDS011;6302;42.624;23.334;2023-02-18T02:01:05;20.67;;;10.97;;
12474;SDS011;6302;42.624;23.334;2023-02-18T02:03:32;14.03;;;9.53;;
12474;SDS011;6302;42.624;23.334;2023-02-18T02:05:59;14.40;;;9.43;;
12474;SDS011;6302;42.624;23.334;2023-02-18T02:08:26;14.43;;;9.30;;
12474;SDS011;6302;42.624;23.334;2023-02-18T02:10:58;16.10;;;8.97;;
12474;SDS011;6302;42.624;23.334;2023-02-18T02:13:35;11.97;;;7.67;;
12474;SDS011;6302;42.624;23.334;2023-02-18T02:16:11;15.07;;;8.87;;
12474;SDS011;6302;42.624;23.334;2023-02-18T02:18:48;14.73;;;8.27;;
12474;SDS011;6302;42.624;23.334;2023-02-18T02:24:53;12.47;;;8.13;;
12474;SDS011;6302;42.624;23.334;2023-02-18T02:27:36;13.87;;;9.17;;
12474;SDS011;6302;42.624;23.334;2023-02-18T02:36:13;14.23;;;9.20;;
12474;SDS011;6302;42.624;23.334;2023-02-18T02:38:47;18.30;;;10.87;;
12474;SDS011;6302;42.624;23.334;2023-02-18T02:41:24;16.20;;;10.90;;
12474;SDS011;6302;42.624;23.334;2023-02-18T02:44:01;13.73;;;9.80;;
12474;SDS011;6302;42.624;23.334;2023-02-18T02:46:37;11.33;;;8.53;;
12474;SDS011;6302;42.624;23.334;2023-02-18T02:49:07;11.93;;;7.47;;
12474;SDS011;6302;42.624;23.334;2023-02-18T02:51:48;10.00;;;7.60;;
12474;SDS011;6302;42.624;23.334;2023-02-18T02:54:23;10.47;;;7.73;;
12474;SDS011;6302;42.624;23.334;2023-02-18T02:57:02;9.03;;;7.30;;
12474;SDS011;6302;42.624;23.334;2023-02-18T02:59:31;12.20;;;7.70;;
12474;SDS011;6302;42.624;23.334;2023-02-18T03:02:10;8.70;;;6.93;;
12474;SDS011;6302;42.624;23.334;2023-02-18T03:04:53;9.67;;;6.30;;
12474;SDS011;6302;42.624;23.334;2023-02-18T03:08:02;9.30;;;6.00;;
12474;SDS011;6302;42.624;23.334;2023-02-18T03:13:27;11.70;;;9.07;;
12474;SDS011;6302;42.624;23.334;2023-02-18T03:16:05;10.27;;;7.30;;
12474;SDS011;6302;42.624;23.334;2023-02-18T03:18:40;13.13;;;8.00;;
12474;SDS011;6302;42.624;23.334;2023-02-18T03:21:10;9.57;;;7.53;;
12474;SDS011;6302;42.624;23.334;2023-02-18T03:23:43;11.13;;;7.13;;
12474;SDS011;6302;42.624;23.334;2023-02-18T03:26:15;9.03;;;7.03;;
12474;SDS011;6302;42.624;23.334;2023-02-18T03:28:43;10.67;;;6.67;;
12474;SDS011;6302;42.624;23.334;2023-02-18T03:31:14;9.40;;;6.77;;
12474;SDS011;6302;42.624;23.334;2023-02-18T03:33:45;7.93;;;5.90;;
12474;SDS011;6302;42.624;23.334;2023-02-18T03:36:16;10.00;;;6.90;;
12474;SDS011;6302;42.624;23.334;2023-02-18T03:38:47;12.13;;;8.37;;
12474;SDS011;6302;42.624;23.334;2023-02-18T03:41:19;13.27;;;8.60;;
12474;SDS011;6302;42.624;23.334;2023-02-18T03:43:49;11.07;;;7.77;;
12474;SDS011;6302;42.624;23.334;2023-02-18T03:46:16;9.97;;;7.30;;
12474;SDS011;6302;42.624;23.334;2023-02-18T03:48:43;10.97;;;7.20;;
12474;SDS011;6302;42.624;23.334;2023-02-18T03:51:10;11.20;;;7.23;;
12474;SDS011;6302;42.624;23.334;2023-02-18T03:53:37;10.03;;;7.13;;
12474;SDS011;6302;42.624;23.334;2023-02-18T03:56:06;9.93;;;6.90;;
12474;SDS011;6302;42.624;23.334;2023-02-18T03:58:32;9.30;;;6.60;;
12474;SDS011;6302;42.624;23.334;2023-02-18T04:00:59;13.27;;;6.90;;
12474;SDS011;6302;42.624;23.334;2023-02-18T04:03:26;11.73;;;7.70;;
12474;SDS011;6302;42.624;23.334;2023-02-18T04:05:53;8.40;;;7.10;;
12474;SDS011;6302;42.624;23.334;2023-02-18T04:08:20;10.50;;;7.33;;
12474;SDS011;6302;42.624;23.334;2023-02-18T04:10:46;9.80;;;7.30;;
12474;SDS011;6302;42.624;23.334;2023-02-18T04:13:14;11.27;;;7.57;;
12474;SDS011;6302;42.624;23.334;2023-02-18T04:15:41;15.97;;;8.83;;
12474;SDS011;6302;42.624;23.334;2023-02-18T04:18:09;18.17;;;10.37;;
12474;SDS011;6302;42.624;23.334;2023-02-18T04:20:35;14.97;;;10.20;;
12474;SDS011;6302;42.624;23.334;2023-02-18T04:23:02;15.47;;;9.93;;
12474;SDS011;6302;42.624;23.334;2023-02-18T04:25:29;13.63;;;8.70;;
12474;SDS011;6302;42.624;23.334;2023-02-18T04:27:56;14.60;;;9.50;;
12474;SDS011;6302;42.624;23.334;2023-02-18T04:30:24;12.83;;;8.90;;
12474;SDS011;6302;42.624;23.334;2023-02-18T04:32:51;17.43;;;8.50;;
12474;SDS011;6302;42.624;23.334;2023-02-18T04:35:18;13.57;;;7.83;;
12474;SDS011;6302;42.624;23.334;2023-02-18T04:37:45;13.03;;;8.10;;
12474;SDS011;6302;42.624;23.334;2023-02-18T04:40:12;11.23;;;7.70;;
12474;SDS011;6302;42.624;23.334;2023-02-18T04:42:39;11.13;;;6.63;;
12474;SDS011;6302;42.624;23.334;2023-02-18T04:45:06;13.10;;;9.13;;
12474;SDS011;6302;42.624;23.334;2023-02-18T04:47:34;14.77;;;7.40;;
12474;SDS011;6302;42.624;23.334;2023-02-18T04:50:01;10.97;;;7.20;;
12474;SDS011;6302;42.624;23.334;2023-02-18T04:52:29;13.40;;;7.60;;
12474;SDS011;6302;42.624;23.334;2023-02-18T04:54:55;8.30;;;6.10;;
12474;SDS011;6302;42.624;23.334;2023-02-18T04:57:22;13.00;;;7.03;;
12474;SDS011;6302;42.624;23.334;2023-02-18T04:59:49;10.63;;;6.97;;
12474;SDS011;6302;42.624;23.334;2023-02-18T05:02:18;11.40;;;8.60;;
12474;SDS011;6302;42.624;23.334;2023-02-18T05:04:46;9.43;;;7.30;;
12474;SDS011;6302;42.624;23.334;2023-02-18T05:07:13;10.60;;;7.33;;
12474;SDS011;6302;42.624;23.334;2023-02-18T05:09:40;10.70;;;7.30;;
12474;SDS011;6302;42.624;23.334;2023-02-18T05:12:06;12.43;;;7.80;;
12474;SDS011;6302;42.624;23.334;2023-02-18T05:14:33;13.23;;;8.13;;
12474;SDS011;6302;42.624;23.334;2023-02-18T05:17:00;11.13;;;7.30;;
12474;SDS011;6302;42.624;23.334;2023-02-18T05:19:27;9.83;;;6.90;;
12474;SDS011;6302;42.624;23.334;2023-02-18T05:21:56;11.13;;;7.53;;
12474;SDS011;6302;42.624;23.334;2023-02-18T05:24:22;8.90;;;6.50;;
12474;SDS011;6302;42.624;23.334;2023-02-18T05:26:49;10.47;;;7.43;;
12474;SDS011;6302;42.624;23.334;2023-02-18T05:29:17;10.57;;;7.87;;
12474;SDS011;6302;42.624;23.334;2023-02-18T05:31:44;14.03;;;8.70;;
12474;SDS011;6302;42.624;23.334;2023-02-18T05:34:11;11.77;;;8.00;;
12474;SDS011;6302;42.624;23.334;2023-02-18T05:36:37;13.13;;;8.50;;
12474;SDS011;6302;42.624;23.334;2023-02-18T05:39:05;10.20;;;7.80;;
12474;SDS011;6302;42.624;23.334;2023-02-18T05:41:32;9.37;;;7.43;;
12474;SDS011;6302;42.624;23.334;2023-02-18T05:43:59;14.90;;;9.07;;
12474;SDS011;6302;42.624;23.334;2023-02-18T05:46:43;19.93;;;10.83;;
12474;SDS011;6302;42.624;23.334;2023-02-18T05:49:10;21.03;;;11.47;;
12474;SDS011;6302;42.624;23.334;2023-02-18T05:51:37;19.20;;;11.97;;
12474;SDS011;6302;42.624;23.334;2023-02-18T05:54:05;13.57;;;9.70;;
12474;SDS011;6302;42.624;23.334;2023-02-18T05:56:32;13.87;;;8.80;;
12474;SDS011;6302;42.624;23.334;2023-02-18T05:58:59;9.43;;;7.00;;
12474;SDS011;6302;42.624;23.334;2023-02-18T06:01:26;10.40;;;7.60;;
12474;SDS011;6302;42.624;23.334;2023-02-18T06:03:52;9.17;;;6.97;;
12474;SDS011;6302;42.624;23.334;2023-02-18T06:06:19;10.37;;;6.23;;
12474;SDS011;6302;42.624;23.334;2023-02-18T06:08:48;10.33;;;6.43;;
12474;SDS011;6302;42.624;23.334;2023-02-18T06:11:16;12.20;;;8.20;;
12474;SDS011;6302;42.624;23.334;2023-02-18T06:13:43;14.53;;;8.23;;
12474;SDS011;6302;42.624;23.334;2023-02-18T06:16:10;14.70;;;11.53;;
12474;SDS011;6302;42.624;23.334;2023-02-18T06:18:36;12.83;;;9.00;;
12474;SDS011;6302;42.624;23.334;2023-02-18T06:21:03;13.50;;;9.37;;
12474;SDS011;6302;42.624;23.334;2023-02-18T06:23:30;20.33;;;9.97;;
12474;SDS011;6302;42.624;23.334;2023-02-18T06:25:57;17.37;;;10.43;;
12474;SDS011;6302;42.624;23.334;2023-02-18T06:28:25;16.40;;;9.97;;
12474;SDS011;6302;42.624;23.334;2023-02-18T06:30:52;20.63;;;10.43;;
12474;SDS011;6302;42.624;23.334;2023-02-18T06:33:19;19.93;;;11.50;;
12474;SDS011;6302;42.624;23.334;2023-02-18T06:35:51;26.83;;;13.07;;
12474;SDS011;6302;42.624;23.334;2023-02-18T06:38:20;31.53;;;14.43;;
12474;SDS011;6302;42.624;23.334;2023-02-18T06:40:46;26.80;;;14.63;;
12474;SDS011;6302;42.624;23.334;2023-02-18T06:43:14;24.10;;;13.83;;
12474;SDS011;6302;42.624;23.334;2023-02-18T06:45:42;22.93;;;14.00;;
12474;SDS011;6302;42.624;23.334;2023-02-18T06:48:09;32.90;;;17.07;;
12474;SDS011;6302;42.624;23.334;2023-02-18T06:50:36;38.73;;;19.43;;
12474;SDS011;6302;42.624;23.334;2023-02-18T06:53:03;34.30;;;19.10;;
12474;SDS011;6302;42.624;23.334;2023-02-18T06:55:30;52.17;;;27.27;;
12474;SDS011;6302;42.624;23.334;2023-02-18T06:57:57;29.53;;;17.17;;
12474;SDS011;6302;42.624;23.334;2023-02-18T07:00:23;24.10;;;14.83;;
12474;SDS011;6302;42.624;23.334;2023-02-18T07:02:51;20.53;;;12.33;;
12474;SDS011;6302;42.624;23.334;2023-02-18T07:05:18;27.20;;;13.50;;
12474;SDS011;6302;42.624;23.334;2023-02-18T07:07:45;29.10;;;16.07;;
12474;SDS011;6302;42.624;23.334;2023-02-18T07:10:12;44.60;;;22.63;;
12474;SDS011;6302;42.624;23.334;2023-02-18T07:12:39;21.03;;;13.47;;
12474;SDS011;6302;42.624;23.334;2023-02-18T07:15:05;17.33;;;9.37;;
12474;SDS011;6302;42.624;23.334;2023-02-18T07:17:33;17.40;;;8.87;;
12474;SDS011;6302;42.624;23.334;2023-02-18T07:20:01;18.23;;;9.03;;
12474;SDS011;6302;42.624;23.334;2023-02-18T07:22:28;22.07;;;12.07;;
12474;SDS011;6302;42.624;23.334;2023-02-18T07:24:55;29.67;;;16.20;;
12474;SDS011;6302;42.624;23.334;2023-02-18T07:27:22;12.27;;;7.87;;
12474;SDS011;6302;42.624;23.334;2023-02-18T07:29:50;16.53;;;9.90;;
12474;SDS011;6302;42.624;23.334;2023-02-18T07:32:18;20.97;;;11.60;;
12474;SDS011;6302;42.624;23.334;2023-02-18T07:34:45;13.20;;;8.70;;
12474;SDS011;6302;42.624;23.334;2023-02-18T07:37:13;10.03;;;8.00;;
12474;SDS011;6302;42.624;23.334;2023-02-18T07:39:40;15.37;;;8.43;;
12474;SDS011;6302;42.624;23.334;2023-02-18T07:42:07;12.77;;;8.33;;
12474;SDS011;6302;42.624;23.334;2023-02-18T07:44:34;12.30;;;7.80;;
12474;SDS011;6302;42.624;23.334;2023-02-18T07:47:01;16.00;;;8.17;;
12474;SDS011;6302;42.624;23.334;2023-02-18T07:49:29;11.77;;;7.93;;
12474;SDS011;6302;42.624;23.334;2023-02-18T07:51:56;13.50;;;8.17;;
12474;SDS011;6302;42.624;23.334;2023-02-18T07:54:24;13.63;;;8.47;;
12474;SDS011;6302;42.624;23.334;2023-02-18T07:56:51;12.13;;;7.87;;
12474;SDS011;6302;42.624;23.334;2023-02-18T07:59:19;17.07;;;8.97;;
12474;SDS011;6302;42.624;23.334;2023-02-18T08:01:46;15.10;;;9.47;;
12474;SDS011;6302;42.624;23.334;2023-02-18T08:04:13;15.87;;;9.03;;
12474;SDS011;6302;42.624;23.334;2023-02-18T08:06:40;15.17;;;9.50;;
12474;SDS011;6302;42.624;23.334;2023-02-18T08:09:10;19.40;;;10.23;;
12474;SDS011;6302;42.624;23.334;2023-02-18T08:11:39;34.80;;;14.67;;
12474;SDS011;6302;42.624;23.334;2023-02-18T08:14:05;24.13;;;14.03;;
12474;SDS011;6302;42.624;23.334;2023-02-18T08:16:32;27.80;;;14.13;;
12474;SDS011;6302;42.624;23.334;2023-02-18T08:19:00;13.07;;;9.63;;
12474;SDS011;6302;42.624;23.334;2023-02-18T08:21:28;13.13;;;8.67;;
12474;SDS011;6302;42.624;23.334;2023-02-18T08:23:56;17.77;;;9.23;;
12474;SDS011;6302;42.624;23.334;2023-02-18T08:26:23;22.20;;;11.40;;
12474;SDS011;6302;42.624;23.334;2023-02-18T08:28:51;13.90;;;7.60;;
12474;SDS011;6302;42.624;23.334;2023-02-18T08:31:19;15.10;;;8.53;;
12474;SDS011;6302;42.624;23.334;2023-02-18T08:33:47;11.30;;;7.13;;
12474;SDS011;6302;42.624;23.334;2023-02-18T08:36:13;17.17;;;8.07;;
12474;SDS011;6302;42.624;23.334;2023-02-18T08:38:40;9.87;;;6.87;;
12474;SDS011;6302;42.624;23.334;2023-02-18T08:41:08;11.47;;;7.80;;
12474;SDS011;6302;42.624;23.334;2023-02-18T08:43:35;11.77;;;7.60;;
12474;SDS011;6302;42.624;23.334;2023-02-18T08:46:03;14.03;;;7.63;;
12474;SDS011;6302;42.624;23.334;2023-02-18T08:48:30;11.13;;;7.77;;
12474;SDS011;6302;42.624;23.334;2023-02-18T08:50:57;10.63;;;6.87;;
12474;SDS011;6302;42.624;23.334;2023-02-18T08:53:25;13.37;;;6.77;;
12474;SDS011;6302;42.624;23.334;2023-02-18T08:55:51;9.90;;;7.00;;
12474;SDS011;6302;42.624;23.334;2023-02-18T08:58:18;12.43;;;7.20;;
12474;SDS011;6302;42.624;23.334;2023-02-18T09:00:45;16.33;;;11.10;;
12474;SDS011;6302;42.624;23.334;2023-02-18T09:03:14;14.60;;;8.80;;
12474;SDS011;6302;42.624;23.334;2023-02-18T09:05:41;11.73;;;7.77;;
12474;SDS011;6302;42.624;23.334;2023-02-18T09:08:08;12.23;;;8.60;;
12474;SDS011;6302;42.624;23.334;2023-02-18T09:10:35;13.30;;;8.70;;
12474;SDS011;6302;42.624;23.334;2023-02-18T09:13:03;16.30;;;8.07;;
12474;SDS011;6302;42.624;23.334;2023-02-18T09:15:30;10.37;;;8.43;;
12474;SDS011;6302;42.624;23.334;2023-02-18T09:17:57;11.40;;;8.50;;
12474;SDS011;6302;42.624;23.334;2023-02-18T09:20:25;10.57;;;8.13;;
12474;SDS011;6302;42.624;23.334;2023-02-18T09:22:52;12.40;;;8.20;;
12474;SDS011;6302;42.624;23.334;2023-02-18T09:25:19;12.60;;;9.17;;
12474;SDS011;6302;42.624;23.334;2023-02-18T09:27:46;13.77;;;9.60;;
12474;SDS011;6302;42.624;23.334;2023-02-18T09:30:13;13.63;;;8.27;;
12474;SDS011;6302;42.624;23.334;2023-02-18T09:32:40;13.93;;;8.50;;
12474;SDS011;6302;42.624;23.334;2023-02-18T09:35:07;10.87;;;6.93;;
12474;SDS011;6302;42.624;23.334;2023-02-18T09:37:37;11.00;;;7.53;;
12474;SDS011;6302;42.624;23.334;2023-02-18T09:40:05;9.53;;;6.50;;
12474;SDS011;6302;42.624;23.334;2023-02-18T09:42:33;10.40;;;7.53;;
12474;SDS011;6302;42.624;23.334;2023-02-18T09:45:02;9.20;;;6.70;;
12474;SDS011;6302;42.624;23.334;2023-02-18T09:47:33;11.83;;;7.73;;
12474;SDS011;6302;42.624;23.334;2023-02-18T09:50:05;14.60;;;8.23;;
12474;SDS011;6302;42.624;23.334;2023-02-18T09:52:42;10.80;;;8.00;;
12474;SDS011;6302;42.624;23.334;2023-02-18T09:55:16;19.20;;;10.87;;
12474;SDS011;6302;42.624;23.334;2023-02-18T09:57:46;17.63;;;9.53;;
12474;SDS011;6302;42.624;23.334;2023-02-18T10:00:17;13.27;;;9.30;;
12474;SDS011;6302;42.624;23.334;2023-02-18T10:02:49;13.43;;;8.23;;
12474;SDS011;6302;42.624;23.334;2023-02-18T10:05:20;15.40;;;8.33;;
12474;SDS011;6302;42.624;23.334;2023-02-18T10:07:52;12.47;;;8.40;;
12474;SDS011;6302;42.624;23.334;2023-02-18T10:10:24;15.37;;;8.33;;
12474;SDS011;6302;42.624;23.334;2023-02-18T10:12:56;13.17;;;8.37;;
12474;SDS011;6302;42.624;23.334;2023-02-18T10:15:26;17.60;;;9.27;;
12474;SDS011;6302;42.624;23.334;2023-02-18T10:17:55;14.50;;;8.73;;
12474;SDS011;6302;42.624;23.334;2023-02-18T10:20:23;15.20;;;9.27;;
12474;SDS011;6302;42.624;23.334;2023-02-18T10:22:54;13.43;;;9.13;;
12474;SDS011;6302;42.624;23.334;2023-02-18T10:25:25;15.03;;;8.83;;
12474;SDS011;6302;42.624;23.334;2023-02-18T10:27:52;21.77;;;10.33;;
12474;SDS011;6302;42.624;23.334;2023-02-18T10:30:21;13.67;;;8.93;;
12474;SDS011;6302;42.624;23.334;2023-02-18T10:32:50;13.70;;;9.60;;
12474;SDS011;6302;42.624;23.334;2023-02-18T10:35:22;17.87;;;9.80;;
12474;SDS011;6302;42.624;23.334;2023-02-18T10:37:58;16.03;;;9.47;;
12474;SDS011;6302;42.624;23.334;2023-02-18T10:40:34;15.93;;;10.20;;
12474;SDS011;6302;42.624;23.334;2023-02-18T10:43:12;14.23;;;9.57;;
12474;SDS011;6302;42.624;23.334;2023-02-18T10:45:51;16.33;;;9.57;;
12474;SDS011;6302;42.624;23.334;2023-02-18T10:48:33;13.40;;;9.53;;
12474;SDS011;6302;42.624;23.334;2023-02-18T10:51:11;15.77;;;9.13;;
12474;SDS011;6302;42.624;23.334;2023-02-18T10:53:43;15.83;;;9.17;;
12474;SDS011;6302;42.624;23.334;2023-02-18T10:56:28;18.17;;;10.80;;
12474;SDS011;6302;42.624;23.334;2023-02-18T10:59:00;15.87;;;9.17;;
12474;SDS011;6302;42.624;23.334;2023-02-18T11:01:31;15.43;;;10.13;;
12474;SDS011;6302;42.624;23.334;2023-02-18T11:04:11;15.77;;;10.10;;
12474;SDS011;6302;42.624;23.334;2023-02-18T11:06:40;17.43;;;10.03;;
12474;SDS011;6302;42.624;23.334;2023-02-18T11:09:20;14.67;;;9.07;;
12474;SDS011;6302;42.624;23.334;2023-02-18T11:11:57;16.50;;;9.50;;
12474;SDS011;6302;42.624;23.334;2023-02-18T11:14:40;11.80;;;8.10;;
12474;SDS011;6302;42.624;23.334;2023-02-18T11:17:14;15.53;;;8.43;;
12474;SDS011;6302;42.624;23.334;2023-02-18T11:19:50;14.83;;;8.87;;
12474;SDS011;6302;42.624;23.334;2023-02-18T11:22:19;16.57;;;9.60;;
12474;SDS011;6302;42.624;23.334;2023-02-18T11:24:53;13.23;;;9.00;;
12474;SDS011;6302;42.624;23.334;2023-02-18T11:27:23;12.97;;;8.57;;
12474;SDS011;6302;42.624;23.334;2023-02-18T11:29:55;13.40;;;8.83;;
12474;SDS011;6302;42.624;23.334;2023-02-18T11:32:26;13.30;;;8.97;;
12474;SDS011;6302;42.624;23.334;2023-02-18T11:34:55;15.03;;;8.80;;
12474;SDS011;6302;42.624;23.334;2023-02-18T11:37:22;15.87;;;8.97;;
12474;SDS011;6302;42.624;23.334;2023-02-18T11:39:50;11.27;;;8.53;;
12474;SDS011;6302;42.624;23.334;2023-02-18T11:42:21;13.47;;;7.70;;
12474;SDS011;6302;42.624;23.334;2023-02-18T11:44:51;14.80;;;9.03;;
12474;SDS011;6302;42.624;23.334;2023-02-18T11:47:21;14.73;;;8.00;;
12474;SDS011;6302;42.624;23.334;2023-02-18T11:50:13;14.13;;;8.40;;
12474;SDS011;6302;42.624;23.334;2023-02-18T11:52:43;15.27;;;8.47;;
12474;SDS011;6302;42.624;23.334;2023-02-18T11:55:15;10.30;;;7.53;;
12474;SDS011;6302;42.624;23.334;2023-02-18T11:57:44;9.77;;;7.37;;
12474;SDS011;6302;42.624;23.334;2023-02-18T12:00:16;12.37;;;7.33;;
12474;SDS011;6302;42.624;23.334;2023-02-18T12:02:47;12.30;;;7.53;;
12474;SDS011;6302;42.624;23.334;2023-02-18T12:05:15;10.97;;;7.67;;
12474;SDS011;6302;42.624;23.334;2023-02-18T12:07:47;12.13;;;7.43;;
12474;SDS011;6302;42.624;23.334;2023-02-18T12:10:22;9.77;;;7.40;;
12474;SDS011;6302;42.624;23.334;2023-02-18T12:12:54;9.93;;;7.43;;
12474;SDS011;6302;42.624;23.334;2023-02-18T12:15:31;15.13;;;7.37;;
12474;SDS011;6302;42.624;23.334;2023-02-18T12:21:01;13.53;;;7.93;;
12474;SDS011;6302;42.624;23.334;2023-02-18T12:23:37;8.10;;;6.70;;
12474;SDS011;6302;42.624;23.334;2023-02-18T12:26:20;12.93;;;7.40;;
12474;SDS011;6302;42.624;23.334;2023-02-18T12:28:56;10.87;;;7.13;;
12474;SDS011;6302;42.624;23.334;2023-02-18T12:31:53;9.83;;;7.27;;
12474;SDS011;6302;42.624;23.334;2023-02-18T12:34:47;12.50;;;6.70;;
12474;SDS011;6302;42.624;23.334;2023-02-18T12:37:29;10.70;;;6.87;;
12474;SDS011;6302;42.624;23.334;2023-02-18T12:40:28;13.07;;;7.60;;
12474;SDS011;6302;42.624;23.334;2023-02-18T12:43:08;8.90;;;6.43;;
12474;SDS011;6302;42.624;23.334;2023-02-18T12:45:44;8.30;;;5.10;;
12474;SDS011;6302;42.624;23.334;2023-02-18T12:48:33;4.77;;;2.77;;
12474;SDS011;6302;42.624;23.334;2023-02-18T12:51:16;3.27;;;2.50;;
12474;SDS011;6302;42.624;23.334;2023-02-18T12:57:11;2.47;;;1.37;;
12474;SDS011;6302;42.624;23.334;2023-02-18T13:02:48;3.23;;;2.00;;
12474;SDS011;6302;42.624;23.334;2023-02-18T13:05:37;14.80;;;4.70;;
12474;SDS011;6302;42.624;23.334;2023-02-18T13:08:17;9.50;;;2.97;;
12474;SDS011;6302;42.624;23.334;2023-02-18T13:11:00;2.97;;;2.10;;
12474;SDS011;6302;42.624;23.334;2023-02-18T13:13:36;2.40;;;1.87;;
12474;SDS011;6302;42.624;23.334;2023-02-18T13:16:09;1.70;;;1.60;;
12474;SDS011;6302;42.624;23.334;2023-02-18T13:18:39;1.70;;;1.60;;
12474;SDS011;6302;42.624;23.334;2023-02-18T13:21:10;3.63;;;1.70;;
12474;SDS011;6302;42.624;23.334;2023-02-18T13:23:39;2.27;;;2.00;;
12474;SDS011;6302;42.624;23.334;2023-02-18T13:26:15;1.43;;;1.33;;
12474;SDS011;6302;42.624;23.334;2023-02-18T13:28:47;1.73;;;1.63;;
12474;SDS011;6302;42.624;23.334;2023-02-18T13:31:30;1.50;;;1.40;;
12474;SDS011;6302;42.624;23.334;2023-02-18T13:34:07;3.20;;;2.40;;
12474;SDS011;6302;42.624;23.334;2023-02-18T13:36:45;3.90;;;2.70;;
12474;SDS011;6302;42.624;23.334;2023-02-18T13:39:20;3.20;;;2.10;;
12474;SDS011;6302;42.624;23.334;2023-02-18T13:41:49;2.67;;;1.90;;
12474;SDS011;6302;42.624;23.334;2023-02-18T13:47:07;1.83;;;1.70;;
12474;SDS011;6302;42.624;23.334;2023-02-18T13:49:37;1.63;;;1.53;;
12474;SDS011;6302;42.624;23.334;2023-02-18T13:52:14;3.10;;;1.87;;
12474;SDS011;6302;42.624;23.334;2023-02-18T13:54:45;2.93;;;1.93;;
12474;SDS011;6302;42.624;23.334;2023-02-18T13:57:13;3.63;;;2.90;;
12474;SDS011;6302;42.624;23.334;2023-02-18T13:59:43;2.73;;;2.40;;
12474;SDS011;6302;42.624;23.334;2023-02-18T14:02:34;2.67;;;2.17;;
12474;SDS011;6302;42.624;23.334;2023-02-18T14:05:18;1.90;;;1.50;;
12474;SDS011;6302;42.624;23.334;2023-02-18T14:07:48;3.20;;;1.90;;
12474;SDS011;6302;42.624;23.334;2023-02-18T14:10:27;3.47;;;2.10;;
12474;SDS011;6302;42.624;23.334;2023-02-18T14:13:01;1.83;;;1.70;;
12474;SDS011;6302;42.624;23.334;2023-02-18T14:15:52;2.90;;;2.27;;
12474;SDS011;6302;42.624;23.334;2023-02-18T14:18:28;2.90;;;2.10;;
12474;SDS011;6302;42.624;23.334;2023-02-18T14:21:18;2.50;;;2.30;;
12474;SDS011;6302;42.624;23.334;2023-02-18T14:23:57;7.90;;;4.33;;
12474;SDS011;6302;42.624;23.334;2023-02-18T14:26:28;5.47;;;4.30;;
12474;SDS011;6302;42.624;23.334;2023-02-18T14:28:59;5.13;;;4.27;;
12474;SDS011;6302;42.624;23.334;2023-02-18T14:31:35;5.80;;;4.70;;
12474;SDS011;6302;42.624;23.334;2023-02-18T14:40:22;5.87;;;4.60;;
12474;SDS011;6302;42.624;23.334;2023-02-18T14:43:00;8.77;;;5.23;;
12474;SDS011;6302;42.624;23.334;2023-02-18T14:45:37;6.73;;;5.00;;
12474;SDS011;6302;42.624;23.334;2023-02-18T14:48:39;6.87;;;4.80;;
12474;SDS011;6302;42.624;23.334;2023-02-18T14:51:19;7.40;;;5.20;;
12474;SDS011;6302;42.624;23.334;2023-02-18T14:53:50;6.47;;;4.93;;
12474;SDS011;6302;42.624;23.334;2023-02-18T14:56:19;6.90;;;4.60;;
12474;SDS011;6302;42.624;23.334;2023-02-18T14:58:48;6.47;;;5.30;;
12474;SDS011;6302;42.624;23.334;2023-02-18T15:01:18;9.90;;;5.37;;
12474;SDS011;6302;42.624;23.334;2023-02-18T15:03:47;8.63;;;5.00;;
12474;SDS011;6302;42.624;23.334;2023-02-18T15:06:25;6.53;;;4.50;;
12474;SDS011;6302;42.624;23.334;2023-02-18T15:08:56;6.13;;;4.77;;
12474;SDS011;6302;42.624;23.334;2023-02-18T15:11:24;7.67;;;5.00;;
12474;SDS011;6302;42.624;23.334;2023-02-18T15:13:59;8.03;;;5.00;;
12474;SDS011;6302;42.624;23.334;2023-02-18T15:16:29;9.80;;;4.90;;
12474;SDS011;6302;42.624;23.334;2023-02-18T15:18:59;7.40;;;5.00;;
12474;SDS011;6302;42.624;23.334;2023-02-18T15:21:29;8.90;;;6.83;;
12474;SDS011;6302;42.624;23.334;2023-02-18T15:24:01;9.00;;;5.00;;
12474;SDS011;6302;42.624;23.334;2023-02-18T15:26:31;6.43;;;4.93;;
12474;SDS011;6302;42.624;23.334;2023-02-18T15:28:59;32.20;;;14.60;;
12474;SDS011;6302;42.624;23.334;2023-02-18T15:31:29;44.33;;;29.20;;